New Braunfels, TX (78132)

3:13 PM CDT on September 02, 2015 (GMT -0500)
Oakwood Estates | | Change Station
CLOSE
Current Station
Personal Weather Station
Location: New Braunfels, TX
Elevation: 758 ft
Nearby Weather Stations

Elev 758 ft 29.72 °N, 98.14 °W | Updated 25 seconds ago

Mostly Cloudy
Mostly Cloudy
91.5 °F
Feels Like 97 °F
N
4.0
Wind Variable Wind from East
Gusts 6.0 mph

Today
High -- | Low -- °F
--% Chance of Precip.
Yesterday
High -- | Low -- °F
Precip. -- in
7:10 AM 7:53 PM
Waning Gibbous, 77% visible
Pressure 29.94 in
Visibility 10.0 miles
Clouds Mostly Cloudy 6000 ft
Heat Index 97 °F
Dew Point 69 °F
Humidity 48%
Rainfall 0.00 in
Snow Depth Not available.
UV 5 out of 12
Pollen 8.80 out of 12
Air Quality Not available.
Flu Activity Not available.
METAR KBAZ 021951Z 11004KT 10SM BKN060 33/18 A2997 RMK AO2 SLP138 T03280183
Pressure 29.94 in
Visibility 10.0 miles
Clouds Mostly Cloudy 6000 ft
Heat Index 97 °F
Dew Point 69 °F
Humidity 48%
Rainfall 0.00 in
Snow Depth Not available.
UV 5 out of 12
Pollen 8.80 out of 12
Air Quality Not available.
Flu Activity Not available.
METAR KBAZ 021951Z 11004KT 10SM BKN060 33/18 A2997 RMK AO2 SLP138 T03280183
Nowcast | as of 2:57 PM CDT on September 2, 2015

Isolated to scattered light to moderate showers have developed across the coastal plains of Texas and are pushing west towards the Interstate 35 corridor. Overall rainfall amounts have been light thus far with only a few hundredths of an inch. Some locations may be able to receive up to a tenth under heavier showers. This activity will persist through the afternoon and early evening hours and finally dissipate by 8 to 10 PM.

×

10-Day Weather Forecast

×

Almanac

Astronomy

Sep. 02, 2015 Rise Set
Actual Time
Civil Twilight
Nautical Twilight
Astronomical Twilight
Moon
Length of Visible Light
Length of Day
Tomorrow will be .
, % of the Moon is Illuminated

Today's Extremes

State Highs State Lows

Community

WunderPhotos

Upload Photos

1,851,803 photos uploaded!

WunderBlogs® & News

Nearby

Air Quality

  Air Quality AQ Index Pollutant
Not available.

Snow Depth

Station Depth Elevation

Earthquake Activity

City Distance Mag. Time & Date
Minimum magnitude displayed is 2.5.

Coastal Water Temperatures

Place Temperature

Stations

Nearby Weather Stations

Station Location Temp. Windchill Dew Point Humidity Wind Precip. Elev Updated Type